createdAt,value
2023-04-10T00:01:15.491Z,100.00
2023-04-10T00:03:52.126Z,100.00
2023-04-10T00:06:21.649Z,100.00
2023-04-10T00:08:50.809Z,100.00
2023-04-10T00:11:19.541Z,100.00
2023-04-10T00:13:46.376Z,100.00
2023-04-10T00:16:13.168Z,100.00
2023-04-10T00:18:50.194Z,100.00
2023-04-10T00:21:21.965Z,100.00
2023-04-10T00:23:51.048Z,100.00
2023-04-10T00:26:20.880Z,100.00
2023-04-10T00:28:58.010Z,100.00
2023-04-10T00:31:27.179Z,100.00
2023-04-10T00:33:54.331Z,100.00
2023-04-10T00:36:21.551Z,100.00
2023-04-10T00:38:50.529Z,100.00
2023-04-10T00:41:20.340Z,100.00
2023-04-10T00:43:55.444Z,100.00
2023-04-10T00:46:33.222Z,100.00
2023-04-10T00:49:07.799Z,100.00
2023-04-10T00:54:18.782Z,100.00
2023-04-10T00:56:47.039Z,100.00
2023-04-10T00:59:15.743Z,100.00
2023-04-10T01:01:46.485Z,100.00
2023-04-10T01:04:14.628Z,100.00
2023-04-10T01:07:36.150Z,100.00
2023-04-10T01:10:29.755Z,100.00
2023-04-10T01:13:27.936Z,100.00
2023-04-10T01:16:46.582Z,100.00
2023-04-10T01:20:01.160Z,100.00
2023-04-10T01:23:04.515Z,100.00
2023-04-10T01:26:09.601Z,100.00
2023-04-10T01:29:14.228Z,100.00
2023-04-10T01:32:02.578Z,100.00
2023-04-10T01:34:54.051Z,100.00
2023-04-10T01:37:27.807Z,100.00
2023-04-10T01:40:11.369Z,100.00
2023-04-10T01:43:00.553Z,100.00
2023-04-10T01:45:32.058Z,100.00
2023-04-10T01:48:00.258Z,100.00
2023-04-10T01:50:30.249Z,100.00
2023-04-10T01:53:02.102Z,100.00
2023-04-10T01:55:33.559Z,100.00
2023-04-10T01:58:01.735Z,100.00
2023-04-10T02:00:46.067Z,100.00
2023-04-10T02:03:13.185Z,100.00
2023-04-10T02:06:02.672Z,100.00
2023-04-10T02:09:12.648Z,100.00
2023-04-10T02:12:43.587Z,100.00
2023-04-10T02:15:25.827Z,100.00
2023-04-10T02:18:04.052Z,100.00
2023-04-10T02:20:52.750Z,100.00
2023-04-10T02:23:32.410Z,100.00
2023-04-10T02:26:10.621Z,100.00
2023-04-10T02:28:49.543Z,100.00
2023-04-10T02:31:21.956Z,100.00
2023-04-10T02:34:00.525Z,100.00
2023-04-10T02:36:36.448Z,100.00
2023-04-10T02:39:03.880Z,100.00
2023-04-10T02:41:30.936Z,100.00
2023-04-10T02:43:58.462Z,100.00
2023-04-10T02:46:25.744Z,100.00
2023-04-10T02:48:53.667Z,100.00
2023-04-10T02:51:20.422Z,100.00
2023-04-10T02:53:48.761Z,100.00
2023-04-10T02:56:25.778Z,100.00
2023-04-10T02:58:52.888Z,100.00
2023-04-10T03:01:22.284Z,100.00
2023-04-10T03:03:49.347Z,100.00
2023-04-10T03:06:19.209Z,100.00
2023-04-10T03:08:46.157Z,100.00
2023-04-10T03:11:15.808Z,100.00
2023-04-10T03:13:51.659Z,100.00
2023-04-10T03:16:18.916Z,100.00
2023-04-10T03:18:46.741Z,100.00
2023-04-10T03:21:13.465Z,100.00
2023-04-10T03:23:43.375Z,100.00
2023-04-10T03:26:13.165Z,100.00
2023-04-10T03:28:44.440Z,100.00
2023-04-10T03:31:14.405Z,100.00
2023-04-10T03:33:46.248Z,100.00
2023-04-10T03:36:18.889Z,100.00
2023-04-10T03:38:45.692Z,100.00
2023-04-10T03:41:25.426Z,100.00
2023-04-10T03:43:55.749Z,100.00
2023-04-10T03:46:27.084Z,100.00
2023-04-10T03:49:02.268Z,100.00
2023-04-10T03:51:31.992Z,100.00
2023-04-10T03:53:58.849Z,100.00
2023-04-10T03:56:25.675Z,100.00
2023-04-10T03:58:52.514Z,100.00
2023-04-10T04:01:19.512Z,100.00
2023-04-10T04:03:49.420Z,100.00
2023-04-10T04:06:16.217Z,100.00
2023-04-10T04:08:46.106Z,100.00
2023-04-10T04:11:15.404Z,100.00
2023-04-10T04:13:50.987Z,100.00
2023-04-10T04:16:17.921Z,100.00
2023-04-10T04:18:44.944Z,100.00
2023-04-10T04:21:17.701Z,100.00
2023-04-10T04:23:44.583Z,100.00
2023-04-10T04:26:14.501Z,100.00
2023-04-10T04:28:57.502Z,100.00
2023-04-10T04:31:25.229Z,100.00
2023-04-10T04:33:52.257Z,100.00
2023-04-10T04:36:21.695Z,100.00
2023-04-10T04:38:50.206Z,100.00
2023-04-10T04:41:20.645Z,100.00
2023-04-10T06:39:49.961Z,100.00
2023-04-10T06:42:28.508Z,100.00
2023-04-10T06:44:55.641Z,100.00
2023-04-10T06:47:25.259Z,100.00
2023-04-10T06:49:52.082Z,100.00
2023-04-10T06:52:21.999Z,100.00
2023-04-10T06:54:48.771Z,100.00
2023-04-10T06:57:19.409Z,100.00
2023-04-10T06:59:49.094Z,100.00
2023-04-10T07:02:21.108Z,100.00
2023-04-10T07:04:54.345Z,100.00
2023-04-10T07:07:24.303Z,100.00
2023-04-10T07:09:51.027Z,100.00
2023-04-10T07:12:31.435Z,100.00
2023-04-10T07:15:01.517Z,100.00
2023-04-10T07:17:28.740Z,100.00
2023-04-10T07:19:58.687Z,100.00
2023-04-10T07:22:28.835Z,100.00
2023-04-10T07:24:57.502Z,100.00
2023-04-10T07:27:25.046Z,100.00
2023-04-10T07:29:56.806Z,100.00
2023-04-10T07:32:47.746Z,100.00
2023-04-10T07:35:23.638Z,100.00
2023-04-10T07:37:53.488Z,100.00
2023-04-10T07:40:33.689Z,100.00
2023-04-10T07:43:04.436Z,100.00
2023-04-10T07:45:33.100Z,100.00
2023-04-10T07:48:07.908Z,100.00
2023-04-10T07:50:36.420Z,100.00
2023-04-10T07:53:11.594Z,100.00
2023-04-10T07:56:03.210Z,100.00
2023-04-10T07:58:33.222Z,100.00
2023-04-10T08:01:03.265Z,100.00
2023-04-10T08:03:30.352Z,100.00
2023-04-10T08:05:57.028Z,100.00
2023-04-10T08:08:28.146Z,100.00
2023-04-10T08:10:55.388Z,100.00
2023-04-10T08:13:29.936Z,100.00
2023-04-10T08:16:15.664Z,100.00
2023-04-10T08:18:48.023Z,99.16
2023-04-10T08:21:15.054Z,100.00
2023-04-10T08:23:46.317Z,100.00
2023-04-10T08:26:14.177Z,93.43
2023-04-10T08:29:01.252Z,87.00
2023-04-10T08:31:40.390Z,86.26
2023-04-10T08:34:12.350Z,82.32
2023-04-10T08:36:45.829Z,89.22
2023-04-10T08:39:36.355Z,80.41
2023-04-10T08:42:10.036Z,75.30
2023-04-10T08:44:46.425Z,81.76
2023-04-10T08:47:45.441Z,77.66
2023-04-10T08:50:29.543Z,85.44
2023-04-10T08:53:10.902Z,79.36
2023-04-10T08:55:46.131Z,77.46
2023-04-10T08:58:13.869Z,72.99
2023-04-10T09:00:43.926Z,73.56
2023-04-10T09:03:14.262Z,74.51
2023-04-10T09:05:47.616Z,70.23
2023-04-10T09:08:15.654Z,75.72
2023-04-10T09:11:08.326Z,69.40
2023-04-10T09:13:49.320Z,71.54
2023-04-10T09:16:35.031Z,72.53
2023-04-10T09:19:06.379Z,66.49
2023-04-10T09:21:34.460Z,70.09
2023-04-10T09:24:01.635Z,68.33
2023-04-10T09:26:34.863Z,66.84
2023-04-10T09:29:12.480Z,64.64
2023-04-10T09:31:43.255Z,62.92
2023-04-10T09:34:31.886Z,63.15
2023-04-10T09:37:04.708Z,61.85
2023-04-10T09:39:43.404Z,62.04
2023-04-10T09:42:14.864Z,58.38
2023-04-10T09:44:45.334Z,56.57
2023-04-10T09:47:15.047Z,58.54
2023-04-10T09:50:08.584Z,59.32
2023-04-10T09:52:41.541Z,54.94
2023-04-10T09:55:17.191Z,53.92
2023-04-10T09:57:58.321Z,54.16
2023-04-10T10:00:28.501Z,52.44
2023-04-10T10:03:25.906Z,51.80
2023-04-10T10:05:58.430Z,51.55
2023-04-10T10:08:32.039Z,52.42
2023-04-10T10:11:10.237Z,50.99
2023-04-10T10:13:54.131Z,50.84
2023-04-10T10:16:45.019Z,50.79
2023-04-10T10:19:32.543Z,49.84
2023-04-10T10:22:13.788Z,51.08
2023-04-10T10:24:47.768Z,50.44
2023-04-10T10:27:25.161Z,47.41
2023-04-10T10:29:56.859Z,48.95
2023-04-10T10:32:42.735Z,48.91
2023-04-10T10:35:29.536Z,48.18
2023-04-10T10:38:02.945Z,46.84
2023-04-10T10:41:21.406Z,46.46
2023-04-10T10:44:37.472Z,45.18
2023-04-10T10:47:45.350Z,45.88
2023-04-10T10:50:22.777Z,46.08
2023-04-10T10:53:08.860Z,45.41
2023-04-10T10:55:36.598Z,45.05
2023-04-10T10:58:09.352Z,45.77
2023-04-10T11:03:52.953Z,44.92
2023-04-10T11:06:58.289Z,44.82
2023-04-10T11:09:53.161Z,43.56
2023-04-10T11:12:30.399Z,47.75
2023-04-10T11:15:09.553Z,42.29
2023-04-10T11:17:56.144Z,44.29
2023-04-10T11:20:56.950Z,42.28
2023-04-10T11:23:32.968Z,39.16
2023-04-10T11:25:59.881Z,40.33
2023-04-10T11:37:32.426Z,39.27
2023-04-10T12:42:55.062Z,33.96
2023-04-10T12:45:45.615Z,33.72
2023-04-10T12:48:26.709Z,35.32
2023-04-10T12:50:59.253Z,36.59
2023-04-10T12:53:32.958Z,33.11
2023-04-10T12:56:08.919Z,33.11
2023-04-10T12:58:35.639Z,33.66
2023-04-10T13:01:14.143Z,34.27
2023-04-10T13:03:49.056Z,33.44
2023-04-10T13:06:22.117Z,33.60
2023-04-10T13:08:55.331Z,37.57
2023-04-10T13:11:23.168Z,34.68
2023-04-10T13:13:50.154Z,34.83
2023-04-10T13:16:17.283Z,35.69
2023-04-10T13:18:51.190Z,37.82
2023-04-10T13:46:27.367Z,36.92
2023-04-10T15:09:38.865Z,40.29
2023-04-10T15:12:08.824Z,40.46
2023-04-10T15:14:35.647Z,41.12
2023-04-10T15:17:17.393Z,40.66
2023-04-10T15:19:44.238Z,40.87
2023-04-10T15:22:12.939Z,41.36
2023-04-10T15:30:08.558Z,42.69
2023-04-10T15:32:41.243Z,42.73
2023-04-10T16:30:02.568Z,45.81
2023-04-10T16:32:31.559Z,46.32
2023-04-10T16:34:59.078Z,46.57
2023-04-10T16:48:43.960Z,48.89
2023-04-10T17:13:26.009Z,51.63
2023-04-10T17:21:55.892Z,51.71
2023-04-10T17:24:31.602Z,52.94
2023-04-10T17:27:14.353Z,52.78
2023-04-10T17:32:36.738Z,54.39
2023-04-10T18:16:30.997Z,55.75
2023-04-10T18:19:01.096Z,58.04
2023-04-10T18:21:34.540Z,57.23
2023-04-10T18:24:01.461Z,57.48
2023-04-10T18:37:31.749Z,59.28
2023-04-10T18:40:09.872Z,59.87
2023-04-10T18:42:48.438Z,59.79
2023-04-10T18:45:22.045Z,59.77
2023-04-10T18:47:51.650Z,59.66
2023-04-10T18:58:42.153Z,61.57
2023-04-10T19:23:34.279Z,60.25
2023-04-10T19:26:04.143Z,61.67
2023-04-10T19:28:30.998Z,61.54
2023-04-10T20:13:12.231Z,64.39
2023-04-10T20:51:42.612Z,70.68
2023-04-10T20:59:33.095Z,76.27
2023-04-10T21:13:08.114Z,76.99
2023-04-10T21:59:34.919Z,71.26
2023-04-10T22:02:01.627Z,69.35
2023-04-10T22:59:38.278Z,98.87
2023-04-10T23:02:07.765Z,100.00
2023-04-10T23:04:35.135Z,100.00
2023-04-10T23:07:01.887Z,100.00
2023-04-10T23:09:31.835Z,100.00
2023-04-10T23:11:58.532Z,100.00
2023-04-10T23:14:25.387Z,100.00
2023-04-10T23:16:52.316Z,100.00
2023-04-10T23:19:22.360Z,100.00
2023-04-10T23:21:49.381Z,100.00
2023-04-10T23:24:16.379Z,100.00
2023-04-10T23:26:48.297Z,100.00
2023-04-10T23:29:15.296Z,100.00
2023-04-10T23:31:47.322Z,100.00
2023-04-10T23:34:18.861Z,100.00
2023-04-10T23:36:50.144Z,100.00
2023-04-10T23:39:16.986Z,100.00
2023-04-10T23:41:46.252Z,100.00
2023-04-10T23:44:12.975Z,100.00
2023-04-10T23:46:47.261Z,100.00
2023-04-10T23:49:13.954Z,100.00
2023-04-10T23:51:59.874Z,100.00
2023-04-10T23:54:27.132Z,100.00
